sensor_id;sensor_type;location;lat;lon;timestamp;temperature;humidity
1075;DHT22;526;51.392;12.448;2022-08-18T00:01:24;21.90;97.30
1075;DHT22;526;51.392;12.448;2022-08-18T00:03:50;21.90;97.30
1075;DHT22;526;51.392;12.448;2022-08-18T00:06:17;21.90;97.30
1075;DHT22;526;51.392;12.448;2022-08-18T00:08:43;21.90;97.30
1075;DHT22;526;51.392;12.448;2022-08-18T00:11:08;21.90;97.30
1075;DHT22;526;51.392;12.448;2022-08-18T00:13:35;21.80;97.30
1075;DHT22;526;51.392;12.448;2022-08-18T00:16:00;21.80;97.30
1075;DHT22;526;51.392;12.448;2022-08-18T00:18:26;21.80;97.30
1075;DHT22;526;51.392;12.448;2022-08-18T00:20:52;21.80;97.30
1075;DHT22;526;51.392;12.448;2022-08-18T00:23:17;21.80;97.30
1075;DHT22;526;51.392;12.448;2022-08-18T00:25:43;21.80;97.30
1075;DHT22;526;51.392;12.448;2022-08-18T00:28:10;21.70;97.30
1075;DHT22;526;51.392;12.448;2022-08-18T00:30:37;21.70;97.30
1075;DHT22;526;51.392;12.448;2022-08-18T00:33:03;21.70;97.30
1075;DHT22;526;51.392;12.448;2022-08-18T00:35:32;21.70;97.30
1075;DHT22;526;51.392;12.448;2022-08-18T00:38:01;21.60;97.30
1075;DHT22;526;51.392;12.448;2022-08-18T00:40:31;21.60;97.30
1075;DHT22;526;51.392;12.448;2022-08-18T00:43:00;21.50;97.30
1075;DHT22;526;51.392;12.448;2022-08-18T00:45:35;21.50;97.30
1075;DHT22;526;51.392;12.448;2022-08-18T00:48:07;21.40;97.30
1075;DHT22;526;51.392;12.448;2022-08-18T00:50:37;21.40;97.30
1075;DHT22;526;51.392;12.448;2022-08-18T00:55:35;21.40;97.30
1075;DHT22;526;51.392;12.448;2022-08-18T00:58:07;21.40;97.30
1075;DHT22;526;51.392;12.448;2022-08-18T01:00:34;21.30;97.30
1075;DHT22;526;51.392;12.448;2022-08-18T01:03:04;21.30;97.30
1075;DHT22;526;51.392;12.448;2022-08-18T01:05:38;21.30;97.30
1075;DHT22;526;51.392;12.448;2022-08-18T01:08:06;21.30;97.30
1075;DHT22;526;51.392;12.448;2022-08-18T01:10:36;21.30;97.30
1075;DHT22;526;51.392;12.448;2022-08-18T01:13:03;21.30;97.30
1075;DHT22;526;51.392;12.448;2022-08-18T01:15:29;21.30;97.30
1075;DHT22;526;51.392;12.448;2022-08-18T01:17:56;21.20;97.30
1075;DHT22;526;51.392;12.448;2022-08-18T01:20:46;21.20;97.30
1075;DHT22;526;51.392;12.448;2022-08-18T01:23:34;21.10;97.30
1075;DHT22;526;51.392;12.448;2022-08-18T01:26:00;21.00;97.30
1075;DHT22;526;51.392;12.448;2022-08-18T01:28:33;21.00;97.30
1075;DHT22;526;51.392;12.448;2022-08-18T01:31:01;20.90;97.30
1075;DHT22;526;51.392;12.448;2022-08-18T01:33:33;20.90;97.30
1075;DHT22;526;51.392;12.448;2022-08-18T01:36:09;20.90;97.30
1075;DHT22;526;51.392;12.448;2022-08-18T01:38:36;20.90;97.30
1075;DHT22;526;51.392;12.448;2022-08-18T01:41:02;20.80;97.30
1075;DHT22;526;51.392;12.448;2022-08-18T01:43:29;20.80;97.30
1075;DHT22;526;51.392;12.448;2022-08-18T01:45:54;20.80;97.30
1075;DHT22;526;51.392;12.448;2022-08-18T01:48:21;20.80;97.30
1075;DHT22;526;51.392;12.448;2022-08-18T01:50:47;20.70;97.30
1075;DHT22;526;51.392;12.448;2022-08-18T01:53:14;20.70;97.30
1075;DHT22;526;51.392;12.448;2022-08-18T01:55:40;20.70;97.30
1075;DHT22;526;51.392;12.448;2022-08-18T01:58:09;20.70;97.30
1075;DHT22;526;51.392;12.448;2022-08-18T02:00:35;20.70;97.30
1075;DHT22;526;51.392;12.448;2022-08-18T02:03:03;20.60;97.30
1075;DHT22;526;51.392;12.448;2022-08-18T02:05:36;20.50;97.30
1075;DHT22;526;51.392;12.448;2022-08-18T02:08:03;20.50;97.30
1075;DHT22;526;51.392;12.448;2022-08-18T02:10:29;20.50;97.30
1075;DHT22;526;51.392;12.448;2022-08-18T02:12:55;20.40;97.30
1075;DHT22;526;51.392;12.448;2022-08-18T02:15:20;20.40;97.30
1075;DHT22;526;51.392;12.448;2022-08-18T02:17:46;20.40;97.30
1075;DHT22;526;51.392;12.448;2022-08-18T02:20:14;20.30;97.30
1075;DHT22;526;51.392;12.448;2022-08-18T02:22:42;20.30;97.30
1075;DHT22;526;51.392;12.448;2022-08-18T02:25:09;20.20;97.30
1075;DHT22;526;51.392;12.448;2022-08-18T02:27:35;20.20;97.30
1075;DHT22;526;51.392;12.448;2022-08-18T02:30:05;20.20;97.30
1075;DHT22;526;51.392;12.448;2022-08-18T02:32:32;20.20;97.30
1075;DHT22;526;51.392;12.448;2022-08-18T02:34:57;20.10;97.30
1075;DHT22;526;51.392;12.448;2022-08-18T02:37:23;20.10;97.30
1075;DHT22;526;51.392;12.448;2022-08-18T02:39:49;20.10;97.30
1075;DHT22;526;51.392;12.448;2022-08-18T02:42:14;20.10;97.30
1075;DHT22;526;51.392;12.448;2022-08-18T02:44:40;20.00;97.30
1075;DHT22;526;51.392;12.448;2022-08-18T02:47:06;20.00;97.30
1075;DHT22;526;51.392;12.448;2022-08-18T02:49:32;20.00;97.30
1075;DHT22;526;51.392;12.448;2022-08-18T02:51:57;20.00;97.30
1075;DHT22;526;51.392;12.448;2022-08-18T02:54:24;20.10;97.30
1075;DHT22;526;51.392;12.448;2022-08-18T02:56:51;20.10;97.30
1075;DHT22;526;51.392;12.448;2022-08-18T02:59:22;20.10;97.30
1075;DHT22;526;51.392;12.448;2022-08-18T03:01:50;20.10;97.30
1075;DHT22;526;51.392;12.448;2022-08-18T03:04:19;20.10;97.30
1075;DHT22;526;51.392;12.448;2022-08-18T03:06:45;20.00;97.30
1075;DHT22;526;51.392;12.448;2022-08-18T03:09:13;20.00;97.30
1075;DHT22;526;51.392;12.448;2022-08-18T03:11:39;20.00;97.30
1075;DHT22;526;51.392;12.448;2022-08-18T03:14:06;20.00;97.30
1075;DHT22;526;51.392;12.448;2022-08-18T03:16:32;19.90;97.30
1075;DHT22;526;51.392;12.448;2022-08-18T03:18:59;19.90;97.30
1075;DHT22;526;51.392;12.448;2022-08-18T03:21:27;19.90;97.30
1075;DHT22;526;51.392;12.448;2022-08-18T03:23:54;20.00;97.30
1075;DHT22;526;51.392;12.448;2022-08-18T03:26:22;20.00;97.30
1075;DHT22;526;51.392;12.448;2022-08-18T03:28:49;20.00;97.30
1075;DHT22;526;51.392;12.448;2022-08-18T03:31:16;20.00;97.30
1075;DHT22;526;51.392;12.448;2022-08-18T03:33:43;20.00;97.30
1075;DHT22;526;51.392;12.448;2022-08-18T03:36:12;20.00;97.30
1075;DHT22;526;51.392;12.448;2022-08-18T03:38:39;20.00;97.30
1075;DHT22;526;51.392;12.448;2022-08-18T03:41:06;20.00;97.30
1075;DHT22;526;51.392;12.448;2022-08-18T03:43:33;20.00;97.30
1075;DHT22;526;51.392;12.448;2022-08-18T03:46:04;20.00;97.30
1075;DHT22;526;51.392;12.448;2022-08-18T03:48:31;20.00;97.30
1075;DHT22;526;51.392;12.448;2022-08-18T03:51:04;19.90;97.30
1075;DHT22;526;51.392;12.448;2022-08-18T03:53:31;19.90;97.30
1075;DHT22;526;51.392;12.448;2022-08-18T03:55:57;19.90;97.30
1075;DHT22;526;51.392;12.448;2022-08-18T03:58:23;20.00;97.30
1075;DHT22;526;51.392;12.448;2022-08-18T04:00:49;20.00;97.30
1075;DHT22;526;51.392;12.448;2022-08-18T04:03:14;20.00;97.30
1075;DHT22;526;51.392;12.448;2022-08-18T04:05:40;20.00;97.30
1075;DHT22;526;51.392;12.448;2022-08-18T04:08:05;20.00;97.30
1075;DHT22;526;51.392;12.448;2022-08-18T04:10:32;20.00;97.30
1075;DHT22;526;51.392;12.448;2022-08-18T04:12:57;20.00;97.30
1075;DHT22;526;51.392;12.448;2022-08-18T04:15:23;19.90;97.30
1075;DHT22;526;51.392;12.448;2022-08-18T04:17:48;19.90;97.30
1075;DHT22;526;51.392;12.448;2022-08-18T04:20:14;19.90;97.30
1075;DHT22;526;51.392;12.448;2022-08-18T04:22:41;19.90;97.30
1075;DHT22;526;51.392;12.448;2022-08-18T04:25:07;19.90;97.30
1075;DHT22;526;51.392;12.448;2022-08-18T04:27:34;19.90;97.30
1075;DHT22;526;51.392;12.448;2022-08-18T04:30:00;19.90;97.30
1075;DHT22;526;51.392;12.448;2022-08-18T04:32:26;19.90;97.30
1075;DHT22;526;51.392;12.448;2022-08-18T04:34:54;19.90;97.30
1075;DHT22;526;51.392;12.448;2022-08-18T04:37:20;19.90;97.30
1075;DHT22;526;51.392;12.448;2022-08-18T04:39:46;19.90;97.30
1075;DHT22;526;51.392;12.448;2022-08-18T04:42:12;20.00;97.30
1075;DHT22;526;51.392;12.448;2022-08-18T04:44:37;20.00;97.30
1075;DHT22;526;51.392;12.448;2022-08-18T04:47:04;20.00;97.30
1075;DHT22;526;51.392;12.448;2022-08-18T04:49:31;20.00;97.30
1075;DHT22;526;51.392;12.448;2022-08-18T04:51:58;20.00;97.30
1075;DHT22;526;51.392;12.448;2022-08-18T04:54:42;20.00;97.30
1075;DHT22;526;51.392;12.448;2022-08-18T04:57:17;20.00;97.30
1075;DHT22;526;51.392;12.448;2022-08-18T04:59:44;20.10;97.30
1075;DHT22;526;51.392;12.448;2022-08-18T05:02:22;20.10;97.30
1075;DHT22;526;51.392;12.448;2022-08-18T05:04:47;20.20;97.30
1075;DHT22;526;51.392;12.448;2022-08-18T05:07:17;20.20;97.30
1075;DHT22;526;51.392;12.448;2022-08-18T05:09:43;20.20;97.30
1075;DHT22;526;51.392;12.448;2022-08-18T05:12:10;20.30;97.30
1075;DHT22;526;51.392;12.448;2022-08-18T05:14:41;20.30;97.30
1075;DHT22;526;51.392;12.448;2022-08-18T05:17:09;20.40;97.30
1075;DHT22;526;51.392;12.448;2022-08-18T05:19:35;20.50;97.30
1075;DHT22;526;51.392;12.448;2022-08-18T05:22:00;20.50;97.30
1075;DHT22;526;51.392;12.448;2022-08-18T05:24:28;20.60;97.30
1075;DHT22;526;51.392;12.448;2022-08-18T05:26:54;20.70;97.30
1075;DHT22;526;51.392;12.448;2022-08-18T05:29:20;20.70;97.30
1075;DHT22;526;51.392;12.448;2022-08-18T05:31:50;20.80;97.30
1075;DHT22;526;51.392;12.448;2022-08-18T05:34:20;20.90;97.30
1075;DHT22;526;51.392;12.448;2022-08-18T05:37:03;20.90;97.30
1075;DHT22;526;51.392;12.448;2022-08-18T05:39:39;21.00;97.30
1075;DHT22;526;51.392;12.448;2022-08-18T05:42:12;21.00;97.30
1075;DHT22;526;51.392;12.448;2022-08-18T05:44:41;21.10;97.30
1075;DHT22;526;51.392;12.448;2022-08-18T05:49:49;21.20;97.30
1075;DHT22;526;51.392;12.448;2022-08-18T05:52:26;21.20;97.30
1075;DHT22;526;51.392;12.448;2022-08-18T05:54:55;21.30;97.00
1075;DHT22;526;51.392;12.448;2022-08-18T05:57:46;21.30;97.00
1075;DHT22;526;51.392;12.448;2022-08-18T06:00:16;21.30;96.70
1075;DHT22;526;51.392;12.448;2022-08-18T06:03:03;21.40;96.70
1075;DHT22;526;51.392;12.448;2022-08-18T06:05:37;21.40;96.40
1075;DHT22;526;51.392;12.448;2022-08-18T06:08:08;21.50;96.30
1075;DHT22;526;51.392;12.448;2022-08-18T06:10:36;21.50;96.20
1075;DHT22;526;51.392;12.448;2022-08-18T06:13:03;21.60;96.00
1075;DHT22;526;51.392;12.448;2022-08-18T06:15:48;21.70;95.90
1075;DHT22;526;51.392;12.448;2022-08-18T06:23:40;21.90;95.90
1075;DHT22;526;51.392;12.448;2022-08-18T06:26:20;21.90;95.90
1075;DHT22;526;51.392;12.448;2022-08-18T06:29:19;22.00;95.70
1075;DHT22;526;51.392;12.448;2022-08-18T06:32:11;22.10;95.70
1075;DHT22;526;51.392;12.448;2022-08-18T06:38:13;22.20;95.50
1075;DHT22;526;51.392;12.448;2022-08-18T06:41:07;22.30;95.30
1075;DHT22;526;51.392;12.448;2022-08-18T06:43:36;22.40;95.10
1075;DHT22;526;51.392;12.448;2022-08-18T06:46:09;22.40;95.10
1075;DHT22;526;51.392;12.448;2022-08-18T06:48:54;22.50;94.70
1075;DHT22;526;51.392;12.448;2022-08-18T06:51:22;22.50;94.80
1075;DHT22;526;51.392;12.448;2022-08-18T06:59:33;22.80;95.10
1075;DHT22;526;51.392;12.448;2022-08-18T07:03:04;22.90;94.10
1075;DHT22;526;51.392;12.448;2022-08-18T07:05:25;23.00;94.00
1075;DHT22;526;51.392;12.448;2022-08-18T07:08:14;23.10;94.20
1075;DHT22;526;51.392;12.448;2022-08-18T07:10:43;23.20;93.80
1075;DHT22;526;51.392;12.448;2022-08-18T07:13:16;23.40;93.80
1075;DHT22;526;51.392;12.448;2022-08-18T07:15:43;23.50;93.30
1075;DHT22;526;51.392;12.448;2022-08-18T07:18:11;23.60;93.20
1075;DHT22;526;51.392;12.448;2022-08-18T07:20:48;23.70;93.10
1075;DHT22;526;51.392;12.448;2022-08-18T07:23:30;23.80;92.40
1075;DHT22;526;51.392;12.448;2022-08-18T07:26:14;23.80;92.30
1075;DHT22;526;51.392;12.448;2022-08-18T07:28:43;23.80;92.60
1075;DHT22;526;51.392;12.448;2022-08-18T07:34:11;23.90;92.40
1075;DHT22;526;51.392;12.448;2022-08-18T07:36:49;23.90;92.30
1075;DHT22;526;51.392;12.448;2022-08-18T07:44:42;23.90;92.30
1075;DHT22;526;51.392;12.448;2022-08-18T07:47:26;23.90;92.50
1075;DHT22;526;51.392;12.448;2022-08-18T07:49:56;23.90;92.50
1075;DHT22;526;51.392;12.448;2022-08-18T07:53:23;24.00;92.50
1075;DHT22;526;51.392;12.448;2022-08-18T07:55:35;24.00;92.50
1075;DHT22;526;51.392;12.448;2022-08-18T07:58:23;24.00;92.50
1075;DHT22;526;51.392;12.448;2022-08-18T08:06:53;23.90;92.80
1075;DHT22;526;51.392;12.448;2022-08-18T08:09:32;24.00;93.10
1075;DHT22;526;51.392;12.448;2022-08-18T08:12:19;24.00;93.00
1075;DHT22;526;51.392;12.448;2022-08-18T08:14:56;24.00;93.40
1075;DHT22;526;51.392;12.448;2022-08-18T08:17:32;24.00;93.60
1075;DHT22;526;51.392;12.448;2022-08-18T08:20:11;24.00;93.70
1075;DHT22;526;51.392;12.448;2022-08-18T08:26:22;24.10;93.70
1075;DHT22;526;51.392;12.448;2022-08-18T08:31:29;24.10;94.10
1075;DHT22;526;51.392;12.448;2022-08-18T08:34:17;24.10;94.20
1075;DHT22;526;51.392;12.448;2022-08-18T08:36:46;24.20;94.30
1075;DHT22;526;51.392;12.448;2022-08-18T08:39:24;24.20;93.80
1075;DHT22;526;51.392;12.448;2022-08-18T08:41:57;24.20;93.70
1075;DHT22;526;51.392;12.448;2022-08-18T08:44:29;24.30;93.60
1075;DHT22;526;51.392;12.448;2022-08-18T08:47:21;24.40;93.50
1075;DHT22;526;51.392;12.448;2022-08-18T08:49:53;24.40;93.40
1075;DHT22;526;51.392;12.448;2022-08-18T08:52:26;24.50;93.20
1075;DHT22;526;51.392;12.448;2022-08-18T08:54:57;24.50;93.20
1075;DHT22;526;51.392;12.448;2022-08-18T08:57:38;24.50;93.40
1075;DHT22;526;51.392;12.448;2022-08-18T09:00:12;24.60;93.30
1075;DHT22;526;51.392;12.448;2022-08-18T09:02:53;24.60;93.20
1075;DHT22;526;51.392;12.448;2022-08-18T09:05:33;24.60;92.90
1075;DHT22;526;51.392;12.448;2022-08-18T09:08:26;24.60;92.50
1075;DHT22;526;51.392;12.448;2022-08-18T09:22:39;24.70;93.10
1075;DHT22;526;51.392;12.448;2022-08-18T09:33:47;24.90;92.40
1075;DHT22;526;51.392;12.448;2022-08-18T09:38:56;25.00;92.20
1075;DHT22;526;51.392;12.448;2022-08-18T09:41:56;25.10;92.10
1075;DHT22;526;51.392;12.448;2022-08-18T09:57:27;25.40;92.10
1075;DHT22;526;51.392;12.448;2022-08-18T09:59:54;25.50;91.90
1075;DHT22;526;51.392;12.448;2022-08-18T10:19:05;26.20;89.20
1075;DHT22;526;51.392;12.448;2022-08-18T10:24:55;26.30;88.80
1075;DHT22;526;51.392;12.448;2022-08-18T10:32:55;26.30;88.50
1075;DHT22;526;51.392;12.448;2022-08-18T10:35:54;26.30;88.40
1075;DHT22;526;51.392;12.448;2022-08-18T10:38:41;26.30;89.10
1075;DHT22;526;51.392;12.448;2022-08-18T10:41:18;26.30;88.60
1075;DHT22;526;51.392;12.448;2022-08-18T10:43:47;26.30;88.60
1075;DHT22;526;51.392;12.448;2022-08-18T10:46:27;26.40;89.00
1075;DHT22;526;51.392;12.448;2022-08-18T10:49:03;26.40;89.40
1075;DHT22;526;51.392;12.448;2022-08-18T10:52:02;26.50;89.30
1075;DHT22;526;51.392;12.448;2022-08-18T10:54:56;26.50;89.10
1075;DHT22;526;51.392;12.448;2022-08-18T10:57:40;26.40;88.90
1075;DHT22;526;51.392;12.448;2022-08-18T11:00:12;26.40;88.70
1075;DHT22;526;51.392;12.448;2022-08-18T11:05:43;26.30;89.00
1075;DHT22;526;51.392;12.448;2022-08-18T11:08:14;26.30;89.00
1075;DHT22;526;51.392;12.448;2022-08-18T11:10:44;26.30;89.00
1075;DHT22;526;51.392;12.448;2022-08-18T11:16:11;26.20;89.00
1075;DHT22;526;51.392;12.448;2022-08-18T11:18:46;26.20;89.20
1075;DHT22;526;51.392;12.448;2022-08-18T11:24:22;26.10;89.50
1075;DHT22;526;51.392;12.448;2022-08-18T11:34:46;26.00;90.00
1075;DHT22;526;51.392;12.448;2022-08-18T11:37:24;26.00;89.80
1075;DHT22;526;51.392;12.448;2022-08-18T11:39:54;26.00;89.80
1075;DHT22;526;51.392;12.448;2022-08-18T11:42:36;26.00;89.30
1075;DHT22;526;51.392;12.448;2022-08-18T11:45:24;26.00;89.40
1075;DHT22;526;51.392;12.448;2022-08-18T11:50:28;26.00;89.50
1075;DHT22;526;51.392;12.448;2022-08-18T11:52:54;26.00;89.20
1075;DHT22;526;51.392;12.448;2022-08-18T11:55:31;26.00;88.90
1075;DHT22;526;51.392;12.448;2022-08-18T11:58:00;26.00;88.90
1075;DHT22;526;51.392;12.448;2022-08-18T12:00:55;25.90;89.10
1075;DHT22;526;51.392;12.448;2022-08-18T12:03:30;25.90;89.20
1075;DHT22;526;51.392;12.448;2022-08-18T12:06:24;25.90;89.00
1075;DHT22;526;51.392;12.448;2022-08-18T12:08:58;25.90;88.80
1075;DHT22;526;51.392;12.448;2022-08-18T12:11:36;25.90;88.90
1075;DHT22;526;51.392;12.448;2022-08-18T12:14:08;25.80;88.70
1075;DHT22;526;51.392;12.448;2022-08-18T12:16:35;25.80;88.80
1075;DHT22;526;51.392;12.448;2022-08-18T12:19:01;25.80;88.90
1075;DHT22;526;51.392;12.448;2022-08-18T12:21:27;25.80;89.20
1075;DHT22;526;51.392;12.448;2022-08-18T12:23:53;25.80;89.20
1075;DHT22;526;51.392;12.448;2022-08-18T12:26:19;25.80;89.30
1075;DHT22;526;51.392;12.448;2022-08-18T12:28:45;25.80;89.50
1075;DHT22;526;51.392;12.448;2022-08-18T12:31:13;25.80;89.10
1075;DHT22;526;51.392;12.448;2022-08-18T12:33:41;25.80;89.00
1075;DHT22;526;51.392;12.448;2022-08-18T12:36:10;25.80;88.70
1075;DHT22;526;51.392;12.448;2022-08-18T12:38:44;25.80;88.70
1075;DHT22;526;51.392;12.448;2022-08-18T12:41:12;25.70;88.70
1075;DHT22;526;51.392;12.448;2022-08-18T12:43:40;25.80;88.90
1075;DHT22;526;51.392;12.448;2022-08-18T12:46:05;25.80;89.10
1075;DHT22;526;51.392;12.448;2022-08-18T12:48:31;25.80;89.00
1075;DHT22;526;51.392;12.448;2022-08-18T12:50:57;25.80;89.20
1075;DHT22;526;51.392;12.448;2022-08-18T12:53:25;25.90;89.10
1075;DHT22;526;51.392;12.448;2022-08-18T12:55:52;25.90;88.30
1075;DHT22;526;51.392;12.448;2022-08-18T12:58:17;25.90;87.60
1075;DHT22;526;51.392;12.448;2022-08-18T13:00:43;25.80;87.90
1075;DHT22;526;51.392;12.448;2022-08-18T13:03:08;25.80;88.20
1075;DHT22;526;51.392;12.448;2022-08-18T13:05:35;25.80;89.20
1075;DHT22;526;51.392;12.448;2022-08-18T13:10:29;25.60;90.40
1075;DHT22;526;51.392;12.448;2022-08-18T13:12:54;25.50;91.10
1075;DHT22;526;51.392;12.448;2022-08-18T13:15:20;25.50;91.70
1075;DHT22;526;51.392;12.448;2022-08-18T13:17:46;25.40;92.60
1075;DHT22;526;51.392;12.448;2022-08-18T13:20:15;25.30;92.60
1075;DHT22;526;51.392;12.448;2022-08-18T13:22:41;25.30;92.80
1075;DHT22;526;51.392;12.448;2022-08-18T13:25:10;25.20;92.60
1075;DHT22;526;51.392;12.448;2022-08-18T13:27:36;25.10;92.30
1075;DHT22;526;51.392;12.448;2022-08-18T13:30:08;25.10;92.60
1075;DHT22;526;51.392;12.448;2022-08-18T13:32:34;25.10;92.70
1075;DHT22;526;51.392;12.448;2022-08-18T13:34:59;25.00;92.90
1075;DHT22;526;51.392;12.448;2022-08-18T13:37:25;25.00;93.40
1075;DHT22;526;51.392;12.448;2022-08-18T13:39:52;24.90;94.00
1075;DHT22;526;51.392;12.448;2022-08-18T13:42:18;24.80;94.10
1075;DHT22;526;51.392;12.448;2022-08-18T13:44:44;24.80;94.30
1075;DHT22;526;51.392;12.448;2022-08-18T13:47:09;24.80;94.70
1075;DHT22;526;51.392;12.448;2022-08-18T13:49:35;24.70;95.20
1075;DHT22;526;51.392;12.448;2022-08-18T13:52:00;24.70;94.40
1075;DHT22;526;51.392;12.448;2022-08-18T13:54:28;24.60;94.80
1075;DHT22;526;51.392;12.448;2022-08-18T13:56:56;24.60;94.90
1075;DHT22;526;51.392;12.448;2022-08-18T13:59:22;24.60;94.70
1075;DHT22;526;51.392;12.448;2022-08-18T14:01:49;24.60;94.90
1075;DHT22;526;51.392;12.448;2022-08-18T14:04:15;24.60;94.60
1075;DHT22;526;51.392;12.448;2022-08-18T14:06:41;24.60;94.70
1075;DHT22;526;51.392;12.448;2022-08-18T14:09:07;24.60;94.60
1075;DHT22;526;51.392;12.448;2022-08-18T14:11:36;24.60;94.60
1075;DHT22;526;51.392;12.448;2022-08-18T14:14:03;24.70;94.50
1075;DHT22;526;51.392;12.448;2022-08-18T14:16:29;24.70;94.30
1075;DHT22;526;51.392;12.448;2022-08-18T14:18:55;24.70;94.30
1075;DHT22;526;51.392;12.448;2022-08-18T14:21:41;24.60;94.40
1075;DHT22;526;51.392;12.448;2022-08-18T14:24:26;24.70;94.80
1075;DHT22;526;51.392;12.448;2022-08-18T14:27:10;24.70;94.60
1075;DHT22;526;51.392;12.448;2022-08-18T14:29:36;24.70;94.70
1075;DHT22;526;51.392;12.448;2022-08-18T14:32:02;24.70;94.50
1075;DHT22;526;51.392;12.448;2022-08-18T14:34:28;24.70;94.60
1075;DHT22;526;51.392;12.448;2022-08-18T14:36:53;24.70;94.50
1075;DHT22;526;51.392;12.448;2022-08-18T14:39:19;24.70;94.60
1075;DHT22;526;51.392;12.448;2022-08-18T14:41:44;24.70;94.40
1075;DHT22;526;51.392;12.448;2022-08-18T14:44:10;24.70;94.40
1075;DHT22;526;51.392;12.448;2022-08-18T14:46:37;24.80;94.10
1075;DHT22;526;51.392;12.448;2022-08-18T14:49:03;24.80;94.30
1075;DHT22;526;51.392;12.448;2022-08-18T14:51:29;24.80;94.90
1075;DHT22;526;51.392;12.448;2022-08-18T14:53:54;24.80;95.30
1075;DHT22;526;51.392;12.448;2022-08-18T14:56:22;24.70;95.50
1075;DHT22;526;51.392;12.448;2022-08-18T14:58:48;24.70;96.00
1075;DHT22;526;51.392;12.448;2022-08-18T15:01:13;24.60;96.50
1075;DHT22;526;51.392;12.448;2022-08-18T15:03:39;24.50;97.00
1075;DHT22;526;51.392;12.448;2022-08-18T15:06:06;24.40;97.30
1075;DHT22;526;51.392;12.448;2022-08-18T15:08:34;24.30;97.30
1075;DHT22;526;51.392;12.448;2022-08-18T15:10:59;24.30;97.30
1075;DHT22;526;51.392;12.448;2022-08-18T15:13:25;24.30;97.30
1075;DHT22;526;51.392;12.448;2022-08-18T15:15:51;24.20;97.30
1075;DHT22;526;51.392;12.448;2022-08-18T15:18:17;24.20;97.30
1075;DHT22;526;51.392;12.448;2022-08-18T15:20:43;24.20;97.30
1075;DHT22;526;51.392;12.448;2022-08-18T15:23:27;24.20;97.30
1075;DHT22;526;51.392;12.448;2022-08-18T15:26:11;24.30;97.30
1075;DHT22;526;51.392;12.448;2022-08-18T15:28:37;24.30;97.30
1075;DHT22;526;51.392;12.448;2022-08-18T15:31:03;24.30;97.30
1075;DHT22;526;51.392;12.448;2022-08-18T15:33:29;24.40;97.30
1075;DHT22;526;51.392;12.448;2022-08-18T15:35:55;24.40;97.30
1075;DHT22;526;51.392;12.448;2022-08-18T15:38:22;24.50;97.30
1075;DHT22;526;51.392;12.448;2022-08-18T15:40:57;24.50;97.30
1075;DHT22;526;51.392;12.448;2022-08-18T15:43:25;24.50;97.20
1075;DHT22;526;51.392;12.448;2022-08-18T15:45:51;24.60;97.20
1075;DHT22;526;51.392;12.448;2022-08-18T15:48:19;24.60;97.10
1075;DHT22;526;51.392;12.448;2022-08-18T15:50:46;24.60;97.20
1075;DHT22;526;51.392;12.448;2022-08-18T15:53:14;24.60;96.70
1075;DHT22;526;51.392;12.448;2022-08-18T15:55:40;24.60;96.80
1075;DHT22;526;51.392;12.448;2022-08-18T15:58:06;24.60;96.70
1075;DHT22;526;51.392;12.448;2022-08-18T16:00:33;24.60;96.70
1075;DHT22;526;51.392;12.448;2022-08-18T16:03:02;24.60;96.50
1075;DHT22;526;51.392;12.448;2022-08-18T16:05:31;24.60;96.60
1075;DHT22;526;51.392;12.448;2022-08-18T16:07:58;24.70;96.40
1075;DHT22;526;51.392;12.448;2022-08-18T16:10:27;24.60;96.40
1075;DHT22;526;51.392;12.448;2022-08-18T16:12:54;24.70;96.20
1075;DHT22;526;51.392;12.448;2022-08-18T16:15:21;24.70;96.10
1075;DHT22;526;51.392;12.448;2022-08-18T16:17:49;24.70;96.00
1075;DHT22;526;51.392;12.448;2022-08-18T16:20:15;24.70;95.80
1075;DHT22;526;51.392;12.448;2022-08-18T16:22:43;24.70;95.90
1075;DHT22;526;51.392;12.448;2022-08-18T16:25:08;24.70;95.90
1075;DHT22;526;51.392;12.448;2022-08-18T16:27:34;24.80;95.90
1075;DHT22;526;51.392;12.448;2022-08-18T16:30:01;24.80;95.70
1075;DHT22;526;51.392;12.448;2022-08-18T16:32:29;24.80;95.40
1075;DHT22;526;51.392;12.448;2022-08-18T16:34:55;24.80;95.50
1075;DHT22;526;51.392;12.448;2022-08-18T16:37:21;24.80;95.50
1075;DHT22;526;51.392;12.448;2022-08-18T16:39:46;24.80;95.60
1075;DHT22;526;51.392;12.448;2022-08-18T16:42:15;24.80;95.30
1075;DHT22;526;51.392;12.448;2022-08-18T16:44:41;24.80;95.20
1075;DHT22;526;51.392;12.448;2022-08-18T16:47:07;24.80;95.10
1075;DHT22;526;51.392;12.448;2022-08-18T16:49:33;24.80;95.20
1075;DHT22;526;51.392;12.448;2022-08-18T16:52:01;24.80;95.20
1075;DHT22;526;51.392;12.448;2022-08-18T16:54:28;24.90;95.20
1075;DHT22;526;51.392;12.448;2022-08-18T16:56:53;24.90;95.30
1075;DHT22;526;51.392;12.448;2022-08-18T16:59:19;24.90;95.40
1075;DHT22;526;51.392;12.448;2022-08-18T17:02:04;24.90;95.30
1075;DHT22;526;51.392;12.448;2022-08-18T17:04:58;24.90;95.30
1075;DHT22;526;51.392;12.448;2022-08-18T17:07:27;24.90;95.40
1075;DHT22;526;51.392;12.448;2022-08-18T17:09:54;24.90;95.50
1075;DHT22;526;51.392;12.448;2022-08-18T17:12:22;24.90;95.50
1075;DHT22;526;51.392;12.448;2022-08-18T17:14:50;24.90;95.60
1075;DHT22;526;51.392;12.448;2022-08-18T17:17:17;24.90;95.50
1075;DHT22;526;51.392;12.448;2022-08-18T17:19:44;24.90;95.50
1075;DHT22;526;51.392;12.448;2022-08-18T17:22:10;24.90;95.40
1075;DHT22;526;51.392;12.448;2022-08-18T17:24:36;24.90;95.40
1075;DHT22;526;51.392;12.448;2022-08-18T17:27:09;24.80;95.50
1075;DHT22;526;51.392;12.448;2022-08-18T17:29:57;24.80;95.70
1075;DHT22;526;51.392;12.448;2022-08-18T17:32:41;24.80;96.00
1075;DHT22;526;51.392;12.448;2022-08-18T17:35:14;24.80;96.00
1075;DHT22;526;51.392;12.448;2022-08-18T17:37:45;24.80;96.10
1075;DHT22;526;51.392;12.448;2022-08-18T17:40:25;24.80;96.40
1075;DHT22;526;51.392;12.448;2022-08-18T17:42:51;24.80;96.50
1075;DHT22;526;51.392;12.448;2022-08-18T17:45:18;24.80;96.80
1075;DHT22;526;51.392;12.448;2022-08-18T17:51:02;24.80;96.70
1075;DHT22;526;51.392;12.448;2022-08-18T17:53:20;24.70;96.70
1075;DHT22;526;51.392;12.448;2022-08-18T17:55:54;24.70;96.80
1075;DHT22;526;51.392;12.448;2022-08-18T17:58:30;24.60;96.80
1075;DHT22;526;51.392;12.448;2022-08-18T18:00:59;24.60;96.80
1075;DHT22;526;51.392;12.448;2022-08-18T18:03:27;24.60;96.80
1075;DHT22;526;51.392;12.448;2022-08-18T18:05:58;24.50;96.80
1075;DHT22;526;51.392;12.448;2022-08-18T18:09:10;24.50;96.90
1075;DHT22;526;51.392;12.448;2022-08-18T18:11:42;24.40;96.80
1075;DHT22;526;51.392;12.448;2022-08-18T18:14:37;24.40;96.80
1075;DHT22;526;51.392;12.448;2022-08-18T18:17:28;24.30;96.80
1075;DHT22;526;51.392;12.448;2022-08-18T18:20:10;24.30;96.90
1075;DHT22;526;51.392;12.448;2022-08-18T18:22:39;24.30;97.00
1075;DHT22;526;51.392;12.448;2022-08-18T18:25:06;24.20;97.00
1075;DHT22;526;51.392;12.448;2022-08-18T18:30:20;24.20;97.00
1075;DHT22;526;51.392;12.448;2022-08-18T18:37:51;24.10;97.00
1075;DHT22;526;51.392;12.448;2022-08-18T18:40:41;24.10;97.20